createdAt,value
2019-02-07T00:00:10.181Z,0.00
2019-02-07T00:01:10.214Z,0.00
2019-02-07T00:02:10.098Z,0.00
2019-02-07T00:03:10.102Z,0.00
2019-02-07T00:04:10.104Z,0.00
2019-02-07T00:05:10.105Z,0.00
2019-02-07T00:06:10.110Z,0.00
2019-02-07T00:07:10.159Z,0.00
2019-02-07T00:08:10.116Z,0.00
2019-02-07T00:09:10.123Z,0.00
2019-02-07T00:10:10.166Z,0.00
2019-02-07T00:11:10.130Z,0.00
2019-02-07T00:12:10.142Z,0.00
2019-02-07T00:13:10.138Z,0.00
2019-02-07T00:14:10.140Z,0.00
2019-02-07T00:15:10.484Z,0.00
2019-02-07T00:16:10.155Z,0.00
2019-02-07T00:17:10.159Z,0.00
2019-02-07T00:18:10.160Z,0.00
2019-02-07T00:19:10.162Z,0.00
2019-02-07T00:20:10.164Z,0.00
2019-02-07T00:21:10.171Z,0.00
2019-02-07T00:22:10.179Z,0.00
2019-02-07T00:23:10.175Z,0.00
2019-02-07T00:24:10.179Z,0.00
2019-02-07T00:25:10.187Z,0.00
2019-02-07T00:26:10.180Z,0.00
2019-02-07T00:27:10.195Z,0.00
2019-02-07T00:28:10.194Z,0.00
2019-02-07T00:29:10.193Z,0.00
2019-02-07T00:30:10.207Z,0.00
2019-02-07T00:31:10.205Z,0.00
2019-02-07T00:32:10.219Z,0.00
2019-02-07T00:33:10.256Z,0.00
2019-02-07T00:34:10.224Z,0.00
2019-02-07T00:35:10.232Z,0.00
2019-02-07T00:36:10.228Z,0.00
2019-02-07T00:37:10.228Z,0.00
2019-02-07T00:38:10.238Z,0.00
2019-02-07T00:39:10.240Z,0.00
2019-02-07T00:40:10.242Z,0.00
2019-02-07T00:41:10.246Z,0.00
2019-02-07T00:42:10.239Z,0.00
2019-02-07T00:43:10.252Z,0.00
2019-02-07T00:44:10.261Z,0.00
2019-02-07T00:45:10.256Z,0.00
2019-02-07T00:46:10.265Z,0.00
2019-02-07T00:47:10.273Z,0.00
2019-02-07T00:48:10.264Z,0.00
2019-02-07T00:49:10.279Z,0.00
2019-02-07T00:50:10.290Z,0.00
2019-02-07T00:51:10.287Z,0.00
2019-02-07T00:52:10.308Z,0.00
2019-02-07T00:53:10.294Z,0.00
2019-02-07T00:54:10.285Z,0.00
2019-02-07T00:55:10.299Z,0.00
2019-02-07T00:56:10.304Z,0.00
2019-02-07T00:57:10.312Z,0.00
2019-02-07T00:58:10.314Z,0.00
2019-02-07T00:59:10.317Z,0.00
2019-02-07T01:00:10.318Z,0.00
2019-02-07T01:01:10.324Z,0.00
2019-02-07T01:02:10.330Z,0.00
2019-02-07T01:03:10.340Z,0.00
2019-02-07T01:04:10.336Z,0.00
2019-02-07T01:05:10.331Z,0.00
2019-02-07T01:06:10.341Z,0.00
2019-02-07T01:07:10.349Z,0.00
2019-02-07T01:08:10.350Z,0.00
2019-02-07T01:09:10.350Z,0.00
2019-02-07T01:10:10.366Z,0.00
2019-02-07T01:11:10.366Z,0.00
2019-02-07T01:12:10.376Z,0.00
2019-02-07T01:13:10.369Z,0.00
2019-02-07T01:14:10.373Z,0.00
2019-02-07T01:15:10.374Z,0.00
2019-02-07T01:16:10.389Z,0.00
2019-02-07T01:17:10.375Z,0.00
2019-02-07T01:18:10.386Z,0.00
2019-02-07T01:19:10.393Z,0.00
2019-02-07T01:20:10.407Z,0.00
2019-02-07T01:21:10.399Z,0.00
2019-02-07T01:22:10.407Z,0.00
2019-02-07T01:23:10.407Z,0.00
2019-02-07T01:24:10.433Z,0.00
2019-02-07T01:25:10.415Z,0.00
2019-02-07T01:26:10.422Z,0.00
2019-02-07T01:27:10.419Z,0.00
2019-02-07T01:28:10.433Z,0.00
2019-02-07T01:29:10.435Z,0.00
2019-02-07T01:30:10.439Z,0.00
2019-02-07T01:31:10.440Z,0.00
2019-02-07T01:32:10.447Z,0.00
2019-02-07T01:33:10.450Z,0.00
2019-02-07T01:34:10.450Z,0.00
2019-02-07T01:35:10.452Z,0.00
2019-02-07T01:36:10.459Z,0.00
2019-02-07T01:37:10.459Z,0.00
2019-02-07T01:38:10.465Z,0.00
2019-02-07T01:39:10.471Z,0.00
2019-02-07T01:40:10.475Z,0.00
2019-02-07T01:41:10.480Z,0.00
2019-02-07T01:42:10.481Z,0.00
2019-02-07T01:43:10.484Z,0.00
2019-02-07T01:44:10.485Z,0.00
2019-02-07T01:45:12.957Z,0.00
2019-02-07T01:46:10.497Z,0.00
2019-02-07T01:47:10.500Z,0.00
2019-02-07T01:48:10.503Z,0.00
2019-02-07T01:49:10.510Z,0.00
2019-02-07T01:50:10.510Z,0.00
2019-02-07T01:51:10.519Z,0.00
2019-02-07T01:52:10.521Z,0.00
2019-02-07T01:53:10.521Z,0.00
2019-02-07T01:54:10.527Z,0.00
2019-02-07T01:55:10.523Z,0.00
2019-02-07T01:56:10.529Z,0.00
2019-02-07T01:57:10.542Z,0.00
2019-02-07T01:58:10.544Z,0.00
2019-02-07T01:59:10.545Z,0.00
2019-02-07T02:00:10.553Z,0.00
2019-02-07T02:01:10.545Z,0.00
2019-02-07T02:02:10.558Z,0.00
2019-02-07T02:03:10.562Z,0.00
2019-02-07T02:04:10.585Z,0.00
2019-02-07T02:05:10.578Z,0.00
2019-02-07T02:06:10.575Z,0.00
2019-02-07T02:07:10.586Z,0.00
2019-02-07T02:08:10.585Z,0.00
2019-02-07T02:09:10.580Z,0.00
2019-02-07T02:10:10.599Z,0.00
2019-02-07T02:11:10.603Z,0.00
2019-02-07T02:12:10.595Z,0.00
2019-02-07T02:13:10.599Z,0.00
2019-02-07T02:14:10.603Z,0.00
2019-02-07T02:15:10.607Z,0.00
2019-02-07T02:16:10.610Z,0.00
2019-02-07T02:17:10.611Z,0.00
2019-02-07T02:18:10.615Z,0.00
2019-02-07T02:19:10.617Z,0.00
2019-02-07T02:20:10.709Z,0.00
2019-02-07T02:21:10.629Z,0.00
2019-02-07T02:22:10.626Z,0.00
2019-02-07T02:23:10.629Z,0.00
2019-02-07T02:24:10.638Z,0.00
2019-02-07T02:25:10.637Z,0.00
2019-02-07T02:26:10.645Z,0.00
2019-02-07T02:27:10.649Z,0.00
2019-02-07T02:28:10.645Z,0.00
2019-02-07T02:29:10.653Z,0.00
2019-02-07T02:30:10.657Z,0.00
2019-02-07T02:31:10.660Z,0.00
2019-02-07T02:32:10.672Z,0.00
2019-02-07T02:33:10.664Z,0.00
2019-02-07T02:34:10.670Z,0.00
2019-02-07T02:35:10.670Z,0.00
2019-02-07T02:36:10.677Z,0.00
2019-02-07T02:37:10.680Z,0.00
2019-02-07T02:38:10.684Z,0.00
2019-02-07T02:39:10.690Z,0.00
2019-02-07T02:40:10.696Z,0.00
2019-02-07T02:41:10.694Z,0.00
2019-02-07T02:42:10.689Z,0.00
2019-02-07T02:43:10.696Z,0.00
2019-02-07T02:44:10.703Z,0.00
2019-02-07T02:45:10.704Z,0.00
2019-02-07T02:46:10.713Z,0.00
2019-02-07T02:47:10.711Z,0.00
2019-02-07T02:48:10.713Z,0.00
2019-02-07T02:49:10.709Z,0.00
2019-02-07T02:50:10.722Z,0.00
2019-02-07T02:51:10.720Z,0.00
2019-02-07T02:52:10.735Z,0.00
2019-02-07T02:53:10.728Z,0.00
2019-02-07T02:54:10.734Z,0.00
2019-02-07T02:55:10.732Z,0.00
2019-02-07T02:56:10.732Z,0.00
2019-02-07T02:57:10.762Z,0.00
2019-02-07T02:58:10.742Z,0.00
2019-02-07T02:59:10.755Z,0.00
2019-02-07T03:00:10.754Z,0.00
2019-02-07T03:01:10.758Z,0.00
2019-02-07T03:02:10.750Z,0.00
2019-02-07T03:03:10.759Z,0.00
2019-02-07T03:04:10.766Z,0.00
2019-02-07T03:05:10.767Z,0.00
2019-02-07T03:06:10.776Z,0.00
2019-02-07T03:07:10.763Z,0.00
2019-02-07T03:08:10.771Z,0.00
2019-02-07T03:09:10.773Z,0.00
2019-02-07T03:10:10.779Z,0.00
2019-02-07T03:11:10.778Z,0.00
2019-02-07T03:12:10.847Z,0.00
2019-02-07T03:13:10.788Z,0.00
2019-02-07T03:14:10.791Z,0.00
2019-02-07T03:15:10.791Z,0.00
2019-02-07T03:16:10.801Z,0.00
2019-02-07T03:17:10.792Z,0.00
2019-02-07T03:18:10.815Z,0.00
2019-02-07T03:19:10.800Z,0.00
2019-02-07T03:20:10.950Z,0.00
2019-02-07T03:21:10.808Z,0.00
2019-02-07T03:22:10.813Z,0.00
2019-02-07T03:23:10.815Z,0.00
2019-02-07T03:24:10.811Z,0.00
2019-02-07T03:25:10.816Z,0.00
2019-02-07T03:26:10.827Z,0.00
2019-02-07T03:27:10.821Z,0.00
2019-02-07T03:28:10.831Z,0.00
2019-02-07T03:29:10.830Z,0.00
2019-02-07T03:30:10.837Z,0.00
2019-02-07T03:31:10.839Z,0.00
2019-02-07T03:32:10.842Z,0.00
2019-02-07T03:33:10.839Z,0.00
2019-02-07T03:34:10.846Z,0.00
2019-02-07T03:35:10.840Z,0.00
2019-02-07T03:36:10.856Z,0.00
2019-02-07T03:37:10.860Z,0.00
2019-02-07T03:38:10.852Z,0.00
2019-02-07T03:39:10.858Z,0.00
2019-02-07T03:40:10.859Z,0.00
2019-02-07T03:41:10.863Z,0.00
2019-02-07T03:42:10.865Z,0.00
2019-02-07T03:43:10.869Z,0.00
2019-02-07T03:44:10.882Z,0.00
2019-02-07T03:45:10.869Z,0.00
2019-02-07T03:46:10.872Z,0.00
2019-02-07T03:47:10.880Z,0.00
2019-02-07T03:48:10.884Z,0.00
2019-02-07T03:49:10.884Z,0.00
2019-02-07T03:50:10.904Z,0.00
2019-02-07T03:51:10.892Z,0.00
2019-02-07T03:52:10.891Z,0.00
2019-02-07T03:53:10.905Z,0.00
2019-02-07T03:54:10.903Z,0.00
2019-02-07T03:55:10.899Z,0.00
2019-02-07T03:56:10.905Z,0.00
2019-02-07T03:57:10.903Z,0.00
2019-02-07T03:58:10.906Z,0.00
2019-02-07T03:59:10.923Z,0.00
2019-02-07T04:00:10.915Z,0.00
2019-02-07T04:01:10.921Z,0.00
2019-02-07T04:02:10.921Z,0.00
2019-02-07T04:03:10.926Z,0.00
2019-02-07T04:04:10.924Z,0.00
2019-02-07T04:05:10.937Z,0.00
2019-02-07T04:06:10.930Z,0.00
2019-02-07T04:07:10.933Z,0.00
2019-02-07T04:08:10.935Z,0.00
2019-02-07T04:09:10.939Z,0.00
2019-02-07T04:10:10.944Z,0.00
2019-02-07T04:11:11.070Z,0.00
2019-02-07T04:12:10.949Z,0.00
2019-02-07T04:13:10.947Z,0.00
2019-02-07T04:14:10.951Z,0.00
2019-02-07T04:15:10.962Z,0.00
2019-02-07T04:16:15.190Z,0.00
2019-02-07T04:17:10.959Z,0.00
2019-02-07T04:18:11.064Z,0.00
2019-02-07T04:19:10.965Z,0.00
2019-02-07T04:20:10.967Z,0.00
2019-02-07T04:21:10.973Z,0.00
2019-02-07T04:22:10.972Z,0.00
2019-02-07T04:23:10.987Z,0.00
2019-02-07T04:24:11.001Z,0.00
2019-02-07T04:25:10.985Z,0.00
2019-02-07T04:26:10.988Z,0.00
2019-02-07T04:27:10.995Z,0.00
2019-02-07T04:28:10.993Z,0.00
2019-02-07T04:29:11.001Z,0.00
2019-02-07T04:30:10.999Z,0.00
2019-02-07T04:31:10.999Z,4.00
2019-02-07T04:32:11.006Z,0.00
2019-02-07T04:33:11.007Z,0.00
2019-02-07T04:34:11.015Z,0.00
2019-02-07T04:35:11.020Z,0.00
2019-02-07T04:36:11.018Z,0.00
2019-02-07T04:37:11.018Z,0.00
2019-02-07T04:38:11.022Z,0.00
2019-02-07T04:39:11.026Z,0.00
2019-02-07T04:40:12.325Z,0.00
2019-02-07T04:41:11.027Z,0.00
2019-02-07T04:42:11.032Z,0.00
2019-02-07T04:43:11.034Z,0.00
2019-02-07T04:44:11.055Z,0.00
2019-02-07T04:45:11.041Z,0.00
2019-02-07T04:46:11.054Z,0.00
2019-02-07T04:47:11.050Z,0.00
2019-02-07T04:48:11.154Z,0.00
2019-02-07T04:49:11.053Z,0.00
2019-02-07T04:50:11.064Z,0.00
2019-02-07T04:51:11.057Z,0.00
2019-02-07T04:52:11.066Z,0.00
2019-02-07T04:53:11.067Z,0.00
2019-02-07T04:54:11.071Z,0.00
2019-02-07T04:55:11.074Z,0.00
2019-02-07T04:56:11.080Z,0.00
2019-02-07T04:57:11.084Z,0.00
2019-02-07T04:58:11.082Z,0.00
2019-02-07T04:59:11.087Z,0.00
2019-02-07T05:00:11.115Z,0.00
2019-02-07T05:01:11.089Z,0.00
2019-02-07T05:02:11.100Z,0.00
2019-02-07T05:03:11.097Z,0.00
2019-02-07T05:04:11.096Z,0.00
2019-02-07T05:05:11.099Z,0.00
2019-02-07T05:06:11.108Z,0.00
2019-02-07T05:07:11.110Z,0.00
2019-02-07T05:08:11.114Z,0.00
2019-02-07T05:09:11.124Z,0.00
2019-02-07T05:10:11.123Z,0.00
2019-02-07T05:11:11.126Z,0.00
2019-02-07T05:12:11.127Z,0.00
2019-02-07T05:13:11.131Z,0.00
2019-02-07T05:14:11.130Z,0.00
2019-02-07T05:15:11.145Z,0.00
2019-02-07T05:16:11.138Z,0.00
2019-02-07T05:17:11.143Z,0.00
2019-02-07T05:18:11.138Z,0.00
2019-02-07T05:19:11.139Z,0.00
2019-02-07T05:20:11.154Z,0.00
2019-02-07T05:21:11.166Z,0.00
2019-02-07T05:22:11.155Z,0.00
2019-02-07T05:23:11.159Z,0.00
2019-02-07T05:24:11.159Z,0.00
2019-02-07T05:25:11.163Z,0.00
2019-02-07T05:26:11.166Z,0.00
2019-02-07T05:27:11.165Z,0.00
2019-02-07T05:28:11.177Z,0.00
2019-02-07T05:29:11.175Z,0.00
2019-02-07T05:30:11.180Z,0.00
2019-02-07T05:31:11.181Z,0.00
2019-02-07T05:32:11.189Z,0.00
2019-02-07T05:33:11.188Z,0.00
2019-02-07T05:34:11.198Z,0.00
2019-02-07T05:35:11.198Z,0.00
2019-02-07T05:36:11.198Z,0.00
2019-02-07T05:37:11.203Z,0.00
2019-02-07T05:38:11.202Z,0.00
2019-02-07T05:39:11.206Z,0.00
2019-02-07T05:40:11.210Z,0.00
2019-02-07T05:41:11.215Z,0.00
2019-02-07T05:42:11.213Z,0.00
2019-02-07T05:43:11.216Z,0.00
2019-02-07T05:44:11.222Z,0.00
2019-02-07T05:45:11.225Z,0.00
2019-02-07T05:46:11.227Z,4.00
2019-02-07T05:47:11.224Z,0.00
2019-02-07T05:48:11.235Z,0.00
2019-02-07T05:49:11.245Z,0.00
2019-02-07T05:50:11.243Z,0.00
2019-02-07T05:51:11.245Z,4.00
2019-02-07T05:52:11.253Z,0.00
2019-02-07T05:53:11.254Z,0.00
2019-02-07T05:54:11.288Z,0.00
2019-02-07T05:55:11.256Z,0.00
2019-02-07T05:56:11.260Z,4.00
2019-02-07T05:57:11.265Z,0.00
2019-02-07T05:58:11.265Z,0.00
2019-02-07T05:59:11.277Z,0.00
2019-02-07T06:00:11.271Z,0.00
2019-02-07T06:01:11.280Z,4.00
2019-02-07T06:02:11.278Z,0.00
2019-02-07T06:03:11.278Z,4.00
2019-02-07T06:04:11.285Z,4.00
2019-02-07T06:05:11.290Z,0.00
2019-02-07T06:06:11.290Z,0.00
2019-02-07T06:07:11.295Z,0.00
2019-02-07T06:08:11.303Z,0.00
2019-02-07T06:09:11.301Z,4.00
2019-02-07T06:10:11.307Z,4.00
2019-02-07T06:11:11.314Z,0.00
2019-02-07T06:12:11.309Z,0.00
2019-02-07T06:13:11.311Z,4.00
2019-02-07T06:14:11.320Z,0.00
2019-02-07T06:15:11.320Z,0.00
2019-02-07T06:16:11.319Z,4.00
2019-02-07T06:17:11.328Z,0.00
2019-02-07T06:18:11.331Z,4.00
2019-02-07T06:19:11.336Z,4.00
2019-02-07T06:20:11.345Z,0.00
2019-02-07T06:21:11.339Z,0.00
2019-02-07T06:22:11.347Z,0.00
2019-02-07T06:23:11.351Z,0.00
2019-02-07T06:24:11.348Z,0.00
2019-02-07T06:25:11.381Z,0.00
2019-02-07T06:26:11.360Z,4.00
2019-02-07T06:27:11.358Z,0.00
2019-02-07T06:28:11.367Z,4.00
2019-02-07T06:29:11.369Z,4.00
2019-02-07T06:30:11.368Z,0.00
2019-02-07T06:31:11.375Z,4.00
2019-02-07T06:32:11.371Z,4.00
2019-02-07T06:33:11.376Z,0.00
2019-02-07T06:34:11.386Z,4.00
2019-02-07T06:35:11.397Z,4.00
2019-02-07T06:36:11.389Z,4.00
2019-02-07T06:37:11.393Z,4.00
2019-02-07T06:38:11.401Z,4.00
2019-02-07T06:39:11.401Z,4.00
2019-02-07T06:40:11.424Z,8.00
2019-02-07T06:41:11.415Z,4.00
2019-02-07T06:42:11.416Z,4.00
2019-02-07T06:43:11.414Z,8.00
2019-02-07T06:44:11.436Z,8.00
2019-02-07T06:45:11.419Z,8.00
2019-02-07T06:46:11.428Z,12.00
2019-02-07T06:47:13.368Z,12.00
2019-02-07T06:48:11.429Z,12.00
2019-02-07T06:49:11.437Z,16.00
2019-02-07T06:50:11.432Z,12.00
2019-02-07T06:51:11.447Z,12.00
2019-02-07T06:52:11.451Z,12.00
2019-02-07T06:53:11.453Z,16.00
2019-02-07T06:54:11.450Z,16.00
2019-02-07T06:55:11.465Z,16.00
2019-02-07T06:56:11.460Z,16.00
2019-02-07T06:57:11.460Z,20.00
2019-02-07T06:58:11.467Z,20.00
2019-02-07T06:59:11.499Z,24.00
2019-02-07T07:00:11.472Z,24.00
2019-02-07T07:01:11.489Z,24.00
2019-02-07T07:02:11.486Z,28.00
2019-02-07T07:03:11.485Z,32.00
2019-02-07T07:04:11.490Z,32.00
2019-02-07T07:05:11.496Z,36.00
2019-02-07T07:06:11.492Z,36.00
2019-02-07T07:07:11.496Z,36.00
2019-02-07T07:08:11.514Z,36.00
2019-02-07T07:09:11.508Z,36.00
2019-02-07T07:10:11.505Z,36.00
2019-02-07T07:11:11.511Z,48.00
2019-02-07T07:12:11.524Z,52.00
2019-02-07T07:13:11.525Z,56.00
2019-02-07T07:14:11.522Z,60.00
2019-02-07T07:15:11.526Z,60.00
2019-02-07T07:16:11.531Z,60.00
2019-02-07T07:17:11.535Z,60.00
2019-02-07T07:18:11.536Z,68.00
2019-02-07T07:19:11.537Z,88.00
2019-02-07T07:20:11.543Z,100.00
2019-02-07T07:21:11.557Z,112.00
2019-02-07T07:22:11.550Z,108.00
2019-02-07T07:23:11.568Z,128.00
2019-02-07T07:24:11.559Z,152.00
2019-02-07T07:25:11.562Z,144.00
2019-02-07T07:26:11.576Z,144.00
2019-02-07T07:27:11.569Z,132.00
2019-02-07T07:28:11.574Z,140.00
2019-02-07T07:29:11.574Z,152.00
2019-02-07T07:30:11.584Z,156.00
2019-02-07T07:31:11.585Z,176.00
2019-02-07T07:32:11.584Z,188.00
2019-02-07T07:33:11.583Z,212.00
2019-02-07T07:34:11.591Z,204.00
2019-02-07T07:35:11.600Z,220.00
2019-02-07T07:36:11.600Z,232.00
2019-02-07T07:37:11.600Z,228.00
2019-02-07T07:38:11.606Z,252.00
2019-02-07T07:39:11.607Z,288.00
2019-02-07T07:40:11.619Z,320.00
2019-02-07T07:41:11.626Z,356.00
2019-02-07T07:42:11.620Z,376.00
2019-02-07T07:43:11.628Z,384.00
2019-02-07T07:44:11.626Z,392.00
2019-02-07T07:45:11.630Z,404.00
2019-02-07T07:46:11.634Z,400.00
2019-02-07T07:47:11.640Z,392.00
2019-02-07T07:48:11.642Z,440.00
2019-02-07T07:49:11.641Z,496.00
2019-02-07T07:50:11.646Z,536.00
2019-02-07T07:51:11.658Z,568.00
2019-02-07T07:52:11.655Z,576.00
2019-02-07T07:53:11.655Z,532.00
2019-02-07T07:54:11.664Z,460.00
2019-02-07T07:55:11.672Z,440.00
2019-02-07T07:56:11.670Z,488.00
2019-02-07T07:57:11.674Z,584.00
2019-02-07T07:58:11.674Z,676.00
2019-02-07T07:59:11.679Z,720.00
2019-02-07T08:00:11.677Z,612.00
2019-02-07T08:01:11.685Z,584.00
2019-02-07T08:02:11.695Z,620.00
2019-02-07T08:03:11.693Z,648.00
2019-02-07T08:04:11.701Z,668.00
2019-02-07T08:05:11.698Z,648.00
2019-02-07T08:06:11.704Z,600.00
2019-02-07T08:07:11.707Z,628.00
2019-02-07T08:08:11.717Z,564.00
2019-02-07T08:09:11.704Z,552.00
2019-02-07T08:10:11.708Z,556.00
2019-02-07T08:11:11.734Z,620.00
2019-02-07T08:12:11.730Z,740.00
2019-02-07T08:13:11.732Z,824.00
2019-02-07T08:14:11.742Z,904.00
2019-02-07T08:15:11.740Z,880.00
2019-02-07T08:16:11.740Z,832.00
2019-02-07T08:17:11.748Z,944.00
2019-02-07T08:18:11.743Z,1136.00
2019-02-07T08:19:11.754Z,1208.00
2019-02-07T08:20:11.752Z,1296.00
2019-02-07T08:21:11.761Z,1276.00
2019-02-07T08:22:11.763Z,1256.00
2019-02-07T08:23:11.771Z,1372.00
2019-02-07T08:24:11.780Z,1392.00
2019-02-07T08:25:11.764Z,1172.00
2019-02-07T08:26:11.771Z,1088.00
2019-02-07T08:27:11.771Z,1220.00
2019-02-07T08:28:11.797Z,1440.00
2019-02-07T08:29:11.778Z,1440.00
2019-02-07T08:30:11.781Z,1508.00
2019-02-07T08:31:11.783Z,1504.00
2019-02-07T08:32:11.793Z,1412.00
2019-02-07T08:33:11.794Z,1528.00
2019-02-07T08:34:11.796Z,1604.00
2019-02-07T08:35:11.800Z,1656.00
2019-02-07T08:36:11.867Z,1676.00
2019-02-07T08:37:11.814Z,1216.00
2019-02-07T08:38:11.818Z,1236.00
2019-02-07T08:39:11.813Z,1308.00
2019-02-07T08:40:11.820Z,1276.00
2019-02-07T08:41:11.814Z,1180.00
2019-02-07T08:42:11.828Z,1296.00
2019-02-07T08:43:11.831Z,1436.00
2019-02-07T08:44:14.019Z,1500.00
2019-02-07T08:45:11.850Z,1472.00
2019-02-07T08:46:11.844Z,1316.00
2019-02-07T08:47:11.907Z,1252.00
2019-02-07T08:48:11.869Z,1224.00
2019-02-07T08:49:11.852Z,1132.00
2019-02-07T08:50:11.856Z,920.00
2019-02-07T08:51:11.863Z,852.00
2019-02-07T08:52:11.864Z,724.00
2019-02-07T08:53:11.891Z,648.00
2019-02-07T08:54:11.888Z,684.00
2019-02-07T08:55:11.872Z,1136.00
2019-02-07T08:56:11.875Z,1672.00
2019-02-07T08:57:11.881Z,2376.00
2019-02-07T08:58:11.890Z,2880.00
2019-02-07T08:59:11.892Z,2600.00
2019-02-07T09:00:11.896Z,2456.00
2019-02-07T09:01:11.904Z,2524.00
2019-02-07T09:02:11.907Z,2604.00
2019-02-07T09:03:11.896Z,2056.00
2019-02-07T09:04:11.916Z,2324.00
2019-02-07T09:05:11.923Z,2212.00
2019-02-07T09:06:11.915Z,1816.00
2019-02-07T09:07:11.935Z,1308.00
2019-02-07T09:08:11.936Z,1232.00
2019-02-07T09:09:11.927Z,1112.00
2019-02-07T09:10:11.945Z,708.00
2019-02-07T09:11:11.937Z,656.00
2019-02-07T09:12:11.953Z,720.00
2019-02-07T09:13:11.948Z,840.00
2019-02-07T09:14:11.946Z,1304.00
2019-02-07T09:15:11.944Z,1768.00
2019-02-07T09:16:11.962Z,1752.00
2019-02-07T09:17:14.435Z,1784.00
2019-02-07T09:18:13.371Z,2200.00
2019-02-07T09:19:11.963Z,1668.00
2019-02-07T09:20:11.983Z,1956.00
2019-02-07T09:21:11.978Z,1892.00
2019-02-07T09:22:11.976Z,1732.00
2019-02-07T09:23:11.984Z,1184.00
2019-02-07T09:24:11.990Z,820.00
2019-02-07T09:25:11.998Z,652.00
2019-02-07T09:26:11.997Z,716.00
2019-02-07T09:27:11.999Z,936.00
2019-02-07T09:28:12.016Z,1064.00
2019-02-07T09:29:12.010Z,884.00
2019-02-07T09:30:12.012Z,776.00
2019-02-07T09:31:12.020Z,740.00
2019-02-07T09:32:12.016Z,892.00
2019-02-07T09:33:12.032Z,868.00
2019-02-07T09:34:12.031Z,832.00
2019-02-07T09:35:12.034Z,1116.00
2019-02-07T09:36:12.035Z,1752.00
2019-02-07T09:37:12.038Z,2068.00
2019-02-07T09:38:12.042Z,2632.00
2019-02-07T09:39:12.049Z,3352.00
2019-02-07T09:40:12.055Z,3352.00
2019-02-07T09:41:12.070Z,3324.00
2019-02-07T09:42:12.057Z,3104.00
2019-02-07T09:43:12.068Z,2552.00
2019-02-07T09:44:12.073Z,2748.00
2019-02-07T09:45:12.080Z,2800.00
2019-02-07T09:46:12.078Z,3880.00
2019-02-07T09:47:12.080Z,4540.00
2019-02-07T09:48:21.302Z,3788.00
2019-02-07T09:49:12.093Z,4632.00
2019-02-07T09:50:12.106Z,3488.00
2019-02-07T09:51:12.102Z,2448.00
2019-02-07T09:52:12.116Z,3200.00
2019-02-07T09:53:12.108Z,2504.00
2019-02-07T09:54:12.115Z,2324.00
2019-02-07T09:55:12.139Z,3024.00
2019-02-07T09:56:12.127Z,2872.00
2019-02-07T09:57:12.211Z,3528.00
2019-02-07T09:58:12.160Z,3756.00
2019-02-07T09:59:12.138Z,3608.00
2019-02-07T10:00:12.141Z,3792.00
2019-02-07T10:01:12.161Z,4720.00
2019-02-07T10:02:12.168Z,4480.00
2019-02-07T10:03:12.157Z,3728.00
2019-02-07T10:04:12.157Z,3676.00
2019-02-07T10:05:12.167Z,4408.00
2019-02-07T10:06:12.171Z,5120.00
2019-02-07T10:07:12.177Z,5620.00
2019-02-07T10:08:12.204Z,5900.00
2019-02-07T10:09:12.186Z,6580.00
2019-02-07T10:10:12.216Z,6392.00
2019-02-07T10:11:12.204Z,6236.00
2019-02-07T10:12:12.205Z,6676.00
2019-02-07T10:13:12.237Z,7408.00
2019-02-07T10:14:12.243Z,7848.00
2019-02-07T10:15:14.290Z,10640.00
2019-02-07T10:16:12.225Z,6916.00
2019-02-07T10:17:12.433Z,8080.00
2019-02-07T10:18:12.263Z,10312.00
2019-02-07T10:19:12.317Z,24704.00
2019-02-07T10:20:12.318Z,9288.00
2019-02-07T10:21:12.395Z,5704.00
2019-02-07T10:22:12.402Z,5784.00
2019-02-07T10:23:12.279Z,6620.00
2019-02-07T10:24:12.279Z,6784.00
2019-02-07T10:25:12.287Z,4992.00
2019-02-07T10:26:12.302Z,5036.00
2019-02-07T10:27:12.298Z,58176.00
2019-02-07T10:28:12.302Z,52256.00
2019-02-07T10:29:12.321Z,65632.00
2019-02-07T10:30:12.334Z,10704.00
2019-02-07T10:31:13.445Z,55936.00
2019-02-07T10:32:12.331Z,60224.00
2019-02-07T10:33:12.340Z,61728.00
2019-02-07T10:34:12.347Z,50208.00
2019-02-07T10:35:22.416Z,12712.00
2019-02-07T10:36:12.367Z,17664.00
2019-02-07T10:37:12.372Z,3200.00
2019-02-07T10:38:12.405Z,2832.00
2019-02-07T10:39:12.398Z,3388.00
2019-02-07T10:40:12.399Z,4684.00
2019-02-07T10:41:12.407Z,6192.00
2019-02-07T10:42:12.415Z,6876.00
2019-02-07T10:43:12.428Z,10736.00
2019-02-07T10:44:12.438Z,13692.00
2019-02-07T10:45:12.448Z,54080.00
2019-02-07T10:46:12.482Z,32224.00
2019-02-07T10:47:12.553Z,5312.00
2019-02-07T10:48:12.464Z,6080.00
2019-02-07T10:49:12.474Z,7480.00
2019-02-07T10:50:12.485Z,65664.00
2019-02-07T10:51:12.490Z,11124.00
2019-02-07T10:52:12.493Z,8772.00
2019-02-07T10:53:12.531Z,5964.00
2019-02-07T10:54:12.508Z,8132.00
2019-02-07T10:55:12.521Z,18976.00
2019-02-07T10:56:12.522Z,12956.00
2019-02-07T10:57:12.532Z,25888.00
2019-02-07T10:58:12.542Z,22368.00
2019-02-07T10:59:12.550Z,55488.00
2019-02-07T11:00:12.558Z,70528.00
2019-02-07T11:01:12.565Z,68800.00
2019-02-07T11:02:12.583Z,64544.00
2019-02-07T11:03:12.585Z,61824.00
2019-02-07T11:04:12.595Z,61216.00
2019-02-07T11:05:12.618Z,61984.00
2019-02-07T11:06:12.618Z,8200.00
2019-02-07T11:07:12.632Z,14296.00
2019-02-07T11:08:12.639Z,38784.00
2019-02-07T11:09:12.654Z,64384.00
2019-02-07T11:10:12.689Z,65408.00
2019-02-07T11:11:12.676Z,29728.00
2019-02-07T11:12:12.686Z,10840.00
2019-02-07T11:13:12.705Z,68256.00
2019-02-07T11:14:12.708Z,8184.00
2019-02-07T11:15:12.722Z,10568.00
2019-02-07T11:16:12.732Z,7112.00
2019-02-07T11:17:12.743Z,41920.00
2019-02-07T11:18:12.756Z,62240.00
2019-02-07T11:19:20.859Z,67264.00
2019-02-07T11:20:12.777Z,10596.00
2019-02-07T11:21:12.795Z,69792.00
2019-02-07T11:22:12.798Z,61952.00
2019-02-07T11:23:12.806Z,20896.00
2019-02-07T11:24:12.821Z,60544.00
2019-02-07T11:25:12.828Z,29952.00
2019-02-07T11:26:12.848Z,8944.00
2019-02-07T11:27:12.851Z,48096.00
2019-02-07T11:28:12.865Z,44896.00
2019-02-07T11:29:12.873Z,63744.00
2019-02-07T11:30:12.895Z,12420.00
2019-02-07T11:31:12.905Z,58592.00
2019-02-07T11:32:12.907Z,29952.00
2019-02-07T11:33:12.920Z,14720.00
2019-02-07T11:34:12.931Z,10768.00
2019-02-07T11:35:12.940Z,28288.00
2019-02-07T11:36:12.955Z,10236.00
2019-02-07T11:37:12.968Z,30560.00
2019-02-07T11:38:12.974Z,23552.00
2019-02-07T11:39:12.989Z,31936.00
2019-02-07T11:40:13.098Z,13468.00
2019-02-07T11:41:13.003Z,24064.00
2019-02-07T11:42:13.064Z,21152.00
2019-02-07T11:43:13.017Z,21760.00
2019-02-07T11:44:13.040Z,19392.00
2019-02-07T11:45:13.048Z,9608.00
2019-02-07T11:46:13.053Z,29952.00
2019-02-07T11:47:13.067Z,36480.00
2019-02-07T11:48:13.083Z,40160.00
2019-02-07T11:49:13.093Z,11324.00
2019-02-07T11:50:13.099Z,14260.00
2019-02-07T11:51:13.098Z,10744.00
2019-02-07T11:52:13.115Z,29248.00
2019-02-07T11:53:13.129Z,32352.00
2019-02-07T11:54:13.135Z,26144.00
2019-02-07T11:55:13.149Z,39264.00
2019-02-07T11:56:13.158Z,43712.00
2019-02-07T11:57:13.163Z,36640.00
2019-02-07T11:58:13.178Z,21088.00
2019-02-07T11:59:13.181Z,10872.00
2019-02-07T12:00:13.198Z,9188.00
2019-02-07T12:01:13.216Z,11992.00
2019-02-07T12:02:13.226Z,9804.00
2019-02-07T12:03:13.225Z,28160.00
2019-02-07T12:04:13.237Z,9760.00
2019-02-07T12:05:13.249Z,15120.00
2019-02-07T12:06:13.261Z,19840.00
2019-02-07T12:07:13.262Z,37184.00
2019-02-07T12:08:13.277Z,36288.00
2019-02-07T12:09:13.277Z,13520.00
2019-02-07T12:10:13.301Z,11284.00
2019-02-07T12:11:13.311Z,9324.00
2019-02-07T12:12:13.317Z,9696.00
2019-02-07T12:13:13.322Z,36288.00
2019-02-07T12:14:13.333Z,27744.00
2019-02-07T12:15:13.334Z,30784.00
2019-02-07T12:16:13.351Z,44512.00
2019-02-07T12:17:13.370Z,15312.00
2019-02-07T12:18:13.367Z,43456.00
2019-02-07T12:19:18.169Z,41888.00
2019-02-07T12:20:13.388Z,36832.00
2019-02-07T12:21:13.396Z,41728.00
2019-02-07T12:22:13.410Z,10676.00
2019-02-07T12:23:13.418Z,58624.00
2019-02-07T12:24:13.433Z,48256.00
2019-02-07T12:25:13.448Z,33088.00
2019-02-07T12:26:13.455Z,11540.00
2019-02-07T12:27:13.459Z,21920.00
2019-02-07T12:28:13.475Z,49792.00
2019-02-07T12:29:13.489Z,34464.00
2019-02-07T12:30:13.494Z,12880.00
2019-02-07T12:31:13.504Z,39584.00
2019-02-07T12:32:13.533Z,16596.00
2019-02-07T12:33:13.526Z,9216.00
2019-02-07T12:34:13.536Z,19616.00
2019-02-07T12:35:13.543Z,54400.00
2019-02-07T12:36:13.562Z,36384.00
2019-02-07T12:37:13.563Z,31104.00
2019-02-07T12:38:13.573Z,24640.00
2019-02-07T12:39:13.596Z,22464.00
2019-02-07T12:40:13.595Z,31584.00
2019-02-07T12:41:13.603Z,23744.00
2019-02-07T12:42:13.615Z,10340.00
2019-02-07T12:43:13.628Z,31232.00